Time;durP1;ratioP1;P1;durP2;ratioP2;P2;SDS_P1;SDS_P2;PMS_P1;PMS_P2;Temp;Humidity;BMP_temperature;BMP_pressure;BME280_temperature;BME280_humidity;BME280_pressure;Samples;Min_cycle;Max_cycle;Signal;HPM_P1;HPM_P2
2023/03/16 00:00:42;;;;;;;0.40;0.40;;;;;;;2.53;100.00;63184.81;5031187;28;20313;-54
2023/03/16 00:03:08;;;;;;;0.30;0.30;;;;;;;2.71;100.00;63201.31;5031024;28;20726;-55
2023/03/16 00:05:33;;;;;;;0.33;0.33;;;;;;;2.76;100.00;63211.72;5030990;28;20222;-55
2023/03/16 00:07:59;;;;;;;0.30;0.30;;;;;;;2.68;100.00;63203.03;5031516;28;20267;-60
2023/03/16 00:10:26;;;;;;;0.50;0.37;;;;;;;2.73;100.00;63205.44;5030673;28;20300;-58
2023/03/16 00:12:55;;;;;;;0.30;0.30;;;;;;;2.51;100.00;63182.09;5030596;28;20217;-58
2023/03/16 00:15:22;;;;;;;0.37;0.37;;;;;;;2.54;100.00;63185.38;5012967;28;20238;-58
2023/03/16 00:17:47;;;;;;;0.40;0.40;;;;;;;2.44;100.00;63172.56;5030751;28;20289;-57
2023/03/16 00:20:17;;;;;;;0.40;0.40;;;;;;;2.38;100.00;63170.47;5030533;28;20652;-59
2023/03/16 00:22:44;;;;;;;0.30;0.30;;;;;;;2.43;100.00;63173.97;5030807;28;20773;-59
2023/03/16 00:25:11;;;;;;;0.30;0.30;;;;;;;2.45;100.00;63173.09;5030559;28;20201;-55
2023/03/16 00:27:37;;;;;;;0.33;0.33;;;;;;;2.47;100.00;63178.31;5030512;28;20199;-60
2023/03/16 00:30:04;;;;;;;0.20;0.20;;;;;;;2.34;100.00;63163.66;5030819;28;20659;-55
2023/03/16 00:32:32;;;;;;;0.50;0.50;;;;;;;2.41;100.00;63171.78;5030433;28;20200;-58
2023/03/16 00:35:00;;;;;;;0.43;0.43;;;;;;;2.47;100.00;63178.31;5030250;28;20237;-54
2023/03/16 00:37:27;;;;;;;0.37;0.37;;;;;;;2.45;100.00;63175.59;5012897;28;20190;-56
2023/03/16 00:39:54;;;;;;;0.30;0.30;;;;;;;2.44;100.00;63175.03;5030248;28;20583;-57
2023/03/16 00:42:26;;;;;;;0.40;0.40;;;;;;;2.43;100.00;63173.41;5030302;28;20201;-59
2023/03/16 00:44:58;;;;;;;0.40;0.40;;;;;;;2.32;100.00;63163.97;5030224;28;20210;-58
2023/03/16 00:47:27;;;;;;;0.40;0.40;;;;;;;2.21;100.00;63152.56;5030326;28;20269;-58
2023/03/16 00:49:53;;;;;;;0.33;0.33;;;;;;;2.13;100.00;63143.34;5030476;28;20218;-59
2023/03/16 00:52:19;;;;;;;0.40;0.40;;;;;;;2.16;100.00;63144.13;5030322;28;20640;-61
2023/03/16 00:54:46;;;;;;;0.40;0.40;;;;;;;2.12;100.00;63142.28;5030439;28;20222;-56
2023/03/16 00:57:20;;;;;;;0.40;0.40;;;;;;;2.18;100.00;63146.28;5030212;28;20198;-56
2023/03/16 00:59:46;;;;;;;0.40;0.40;;;;;;;2.15;100.00;63146.06;5030344;28;20209;-55
2023/03/16 01:02:13;;;;;;;0.53;0.53;;;;;;;2.19;100.00;63147.91;5030216;28;20202;-54
2023/03/16 01:04:40;;;;;;;0.50;0.50;;;;;;;2.06;100.00;63133.28;5029954;28;20210;-54
2023/03/16 01:07:08;;;;;;;1.13;0.33;;;;;;;2.11;100.00;63141.19;5030206;28;20275;-55
2023/03/16 01:09:35;;;;;;;1.13;0.43;;;;;;;2.13;100.00;63141.41;5012452;28;20210;-57
2023/03/16 01:12:09;;;;;;;1.40;0.50;;;;;;;2.06;100.00;63133.81;5030374;28;20198;-54
2023/03/16 01:14:35;;;;;;;0.43;0.43;;;;;;;2.08;100.00;63135.44;5030519;28;20303;-54
2023/03/16 01:17:02;;;;;;;1.00;0.50;;;;;;;2.15;100.00;63143.56;5030026;28;20190;-56
2023/03/16 01:19:29;;;;;;;0.40;0.40;;;;;;;2.11;100.00;63138.69;5030155;28;20210;-54
2023/03/16 01:21:54;;;;;;;0.53;0.53;;;;;;;1.95;100.00;63123.81;5030085;28;20197;-54
2023/03/16 01:24:20;;;;;;;0.70;0.70;;;;;;;1.99;100.00;63128.16;5030018;28;20229;-55
2023/03/16 01:26:45;;;;;;;0.93;0.83;;;;;;;1.98;100.00;63124.59;5029872;28;20722;-53
2023/03/16 01:29:11;;;;;;;0.60;0.60;;;;;;;2.07;100.00;63136.84;5030028;28;20237;-54
2023/03/16 01:31:37;;;;;;;0.40;0.40;;;;;;;2.01;100.00;63130.31;5029778;28;20638;-53
2023/03/16 01:34:03;;;;;;;0.73;0.73;;;;;;;2.16;100.00;63142.16;5029670;28;20231;-54
2023/03/16 01:36:30;;;;;;;0.70;0.70;;;;;;;2.20;100.00;63151.47;5029685;28;20591;-53
2023/03/16 01:38:56;;;;;;;0.60;0.60;;;;;;;2.12;100.00;63139.78;5029801;28;20202;-54
2023/03/16 01:41:21;;;;;;;0.63;0.63;;;;;;;2.23;100.00;63151.72;5029482;28;20240;-54
2023/03/16 01:43:47;;;;;;;0.50;0.50;;;;;;;2.18;100.00;63149.31;5029736;28;20376;-54
2023/03/16 01:46:20;;;;;;;0.50;0.50;;;;;;;2.06;100.00;63135.75;5029580;28;20190;-54
2023/03/16 01:48:57;;;;;;;0.77;0.67;;;;;;;2.05;100.00;63132.19;5032709;28;20198;-54
2023/03/16 01:51:28;;;;;;;0.60;0.60;;;;;;;1.90;100.00;63116.44;5032880;28;20190;-55
2023/03/16 01:54:03;;;;;;;0.40;0.40;;;;;;;2.00;100.00;63129.78;5032606;28;20218;-54
2023/03/16 01:56:34;;;;;;;2.60;0.60;;;;;;;2.02;100.00;63128.94;5032824;28;20247;-54
2023/03/16 01:59:05;;;;;;;0.40;0.40;;;;;;;1.97;100.00;63126.00;5032863;28;20361;-54
2023/03/16 02:01:31;;;;;;;0.40;0.40;;;;;;;1.98;100.00;63127.09;5032826;28;20202;-53
2023/03/16 02:04:06;;;;;;;0.40;0.40;;;;;;;1.88;100.00;63111.81;5032841;28;20205;-54
2023/03/16 02:06:34;;;;;;;0.40;0.40;;;;;;;1.88;100.00;63116.25;5032619;28;20181;-54
2023/03/16 02:09:00;;;;;;;0.50;0.50;;;;;;;1.93;100.00;63116.69;5032511;28;20206;-55
2023/03/16 02:11:26;;;;;;;0.73;0.60;;;;;;;1.82;100.00;63110.25;5032589;28;20189;-55
2023/03/16 02:13:51;;;;;;;0.30;0.30;;;;;;;1.83;100.00;63110.81;5032736;28;20300;-54
2023/03/16 02:16:18;;;;;;;0.40;0.40;;;;;;;1.90;100.00;63113.97;5032723;28;20582;-58
2023/03/16 02:18:49;;;;;;;0.63;0.50;;;;;;;1.85;100.00;63110.50;5032414;28;20567;-54
2023/03/16 02:21:21;;;;;;;0.70;0.40;;;;;;;1.82;100.00;63107.78;5032534;28;20286;-53
2023/03/16 02:23:49;;;;;;;1.17;0.30;;;;;;;2.01;100.00;63127.84;5032658;28;20190;-55
2023/03/16 02:26:52;;;;;;;0.50;0.50;;;;;;;1.88;100.00;63118.72;5032464;28;20203;-57
2023/03/16 02:29:42;;;;;;;0.40;0.40;;;;;;;1.84;100.00;63111.91;5009292;28;20672;-59
2023/03/16 02:32:09;;;;;;;0.40;0.40;;;;;;;1.69;100.00;63094.22;5032669;28;20236;-59
2023/03/16 02:34:35;;;;;;;0.20;0.20;;;;;;;1.58;100.00;63084.78;5014611;28;20218;-61
2023/03/16 02:37:02;;;;;;;0.70;0.70;;;;;;;1.71;100.00;63098.34;5032364;28;20205;-59
2023/03/16 02:39:27;;;;;;;0.40;0.40;;;;;;;1.56;100.00;63082.59;5014762;28;20699;-54
2023/03/16 02:41:53;;;;;;;0.77;0.40;;;;;;;1.54;100.00;63077.97;5014457;28;20202;-54
2023/03/16 02:44:32;;;;;;;0.40;0.40;;;;;;;1.56;100.00;63082.59;5032442;28;20221;-53
2023/03/16 02:47:03;;;;;;;0.40;0.40;;;;;;;1.53;100.00;63078.81;5032128;28;20201;-53
2023/03/16 02:49:36;;;;;;;0.40;0.40;;;;;;;1.48;100.00;63070.91;5031965;28;20296;-56
2023/03/16 02:52:06;;;;;;;0.57;0.43;;;;;;;1.45;100.00;63070.16;5031909;28;20194;-57
2023/03/16 02:54:31;;;;;;;0.60;0.43;;;;;;;1.42;100.00;63064.94;5032019;28;20300;-58
2023/03/16 02:56:57;;;;;;;0.40;0.40;;;;;;;1.44;100.00;63067.13;5031974;28;20660;-59
2023/03/16 02:59:22;;;;;;;0.43;0.43;;;;;;;1.50;100.00;63073.06;5031740;28;20662;-54
2023/03/16 03:01:48;;;;;;;0.30;0.30;;;;;;;1.53;100.00;63076.88;5013968;28;20194;-54
2023/03/16 03:04:13;;;;;;;0.40;0.40;;;;;;;1.47;100.00;63072.31;5031720;28;20254;-55
2023/03/16 03:06:40;;;;;;;0.40;0.40;;;;;;;1.36;100.00;63060.94;5031809;28;20563;-54
2023/03/16 03:09:06;;;;;;;1.17;0.80;;;;;;;1.42;100.00;63064.41;5031836;28;20256;-58
2023/03/16 03:11:31;;;;;;;0.70;0.70;;;;;;;1.36;100.00;63058.44;5031886;28;20212;-59
2023/03/16 03:13:57;;;;;;;0.40;0.40;;;;;;;1.34;100.00;63058.22;5031504;28;20688;-58
2023/03/16 03:16:23;;;;;;;0.63;0.63;;;;;;;1.42;100.00;63062.47;5031464;28;20280;-59
2023/03/16 03:18:49;;;;;;;0.33;0.33;;;;;;;1.41;100.00;63061.41;4997359;28;20249;-59
2023/03/16 03:21:15;;;;;;;0.77;0.40;;;;;;;1.33;100.00;63057.13;5031557;28;20193;-57
2023/03/16 03:23:40;;;;;;;0.57;0.57;;;;;;;1.37;100.00;63062.03;5031430;28;20190;-61
2023/03/16 03:26:06;;;;;;;0.40;0.40;;;;;;;1.32;100.00;63054.09;5031497;28;20190;-59
2023/03/16 03:28:33;;;;;;;0.50;0.50;;;;;;;1.36;100.00;63060.94;5031528;28;20190;-58
2023/03/16 03:30:59;;;;;;;0.60;0.47;;;;;;;1.39;100.00;63063.66;5031607;28;20202;-58
2023/03/16 03:33:24;;;;;;;0.33;0.33;;;;;;;1.34;100.00;63055.72;5031389;28;20233;-58
2023/03/16 03:35:57;;;;;;;0.37;0.37;;;;;;;1.24;100.00;63042.41;5031329;28;20226;-58
2023/03/16 03:38:24;;;;;;;1.03;0.50;;;;;;;1.18;100.00;63038.94;5031547;28;20186;-58
2023/03/16 03:40:57;;;;;;;0.30;0.30;;;;;;;1.20;100.00;63038.63;5031322;28;20217;-58
2023/03/16 03:43:23;;;;;;;0.47;0.47;;;;;;;1.16;100.00;63036.78;5013615;28;20247;-59
2023/03/16 03:45:53;;;;;;;0.97;0.40;;;;;;;1.19;100.00;63039.47;5031107;28;20621;-57
2023/03/16 03:48:19;;;;;;;0.30;0.30;;;;;;;1.11;100.00;63031.34;5031376;28;20217;-57
2023/03/16 03:50:45;;;;;;;0.50;0.50;;;;;;;1.15;100.00;63035.16;5013268;28;20217;-58
2023/03/16 03:53:10;;;;;;;0.50;0.50;;;;;;;1.15;100.00;63038.16;5031026;28;20220;-58
2023/03/16 03:55:35;;;;;;;0.37;0.33;;;;;;;1.09;100.00;63031.66;5030987;28;20241;-59
2023/03/16 03:58:01;;;;;;;0.50;0.50;;;;;;;1.12;100.00;63031.88;5031012;28;20189;-58
2023/03/16 04:00:26;;;;;;;0.30;0.30;;;;;;;1.01;100.00;63020.50;5031025;28;20202;-59
2023/03/16 04:02:52;;;;;;;0.30;0.30;;;;;;;1.06;100.00;63025.38;5031229;28;20240;-60
2023/03/16 04:05:18;;;;;;;0.30;0.30;;;;;;;1.15;100.00;63033.19;5030836;28;20206;-60
2023/03/16 04:07:43;;;;;;;0.30;0.30;;;;;;;1.18;100.00;63043.91;5030775;28;20186;-59
2023/03/16 04:10:09;;;;;;;0.20;0.20;;;;;;;1.14;100.00;63034.59;5030497;28;20213;-61
2023/03/16 04:12:34;;;;;;;0.70;0.30;;;;;;;1.20;100.00;63040.56;5030867;28;20182;-60
2023/03/16 04:15:00;;;;;;;0.47;0.43;;;;;;;1.24;100.00;63047.91;5031047;28;20672;-60
2023/03/16 04:17:25;;;;;;;0.37;0.37;;;;;;;1.05;100.00;63024.84;5030040;28;20283;-59
2023/03/16 04:19:50;;;;;;;0.20;0.20;;;;;;;1.09;100.00;63031.66;5030955;28;20206;-54
2023/03/16 04:22:16;;;;;;;0.50;0.47;;;;;;;1.13;100.00;63035.97;5013125;28;20190;-53
2023/03/16 04:24:42;;;;;;;0.60;0.60;;;;;;;1.00;100.00;63018.88;5030434;28;20216;-55
2023/03/16 04:27:08;;;;;;;0.30;0.30;;;;;;;1.17;100.00;63037.31;5030738;28;20190;-53
2023/03/16 04:29:33;;;;;;;0.30;0.30;;;;;;;1.18;100.00;63038.38;5030807;28;20289;-54
2023/03/16 04:31:59;;;;;;;0.27;0.27;;;;;;;1.19;100.00;63039.47;4996428;28;20624;-53
2023/03/16 04:34:24;;;;;;;0.30;0.30;;;;;;;1.17;100.00;63039.78;5030770;28;20328;-55
2023/03/16 04:36:51;;;;;;;0.20;0.20;;;;;;;1.17;100.00;63040.31;5030842;28;20663;-54
2023/03/16 04:39:18;;;;;;;0.37;0.30;;;;;;;1.08;100.00;63025.06;5030608;28;20287;-55
2023/03/16 04:41:43;;;;;;;0.43;0.40;;;;;;;1.07;100.00;63029.47;5012326;28;20191;-53
2023/03/16 04:44:09;;;;;;;0.83;0.60;;;;;;;1.24;100.00;63042.41;5030478;28;20763;-61
2023/03/16 04:46:34;;;;;;;0.30;0.30;;;;;;;1.19;100.00;63041.97;5029636;28;20194;-53
2023/03/16 04:49:00;;;;;;;0.17;0.17;;;;;;;1.19;100.00;63042.50;5030452;28;20247;-53
2023/03/16 04:51:26;;;;;;;0.40;0.40;;;;;;;1.17;100.00;63037.31;5030478;28;20189;-54
2023/03/16 04:53:52;;;;;;;0.70;0.60;;;;;;;1.12;100.00;63031.88;5030057;28;20222;-53
2023/03/16 04:56:17;;;;;;;0.80;0.63;;;;;;;1.08;100.00;63027.56;5030340;28;20580;-54
2023/03/16 04:58:47;;;;;;;1.27;0.77;;;;;;;1.21;100.00;63044.13;5029934;28;20186;-60
2023/03/16 05:01:12;;;;;;;0.43;0.43;;;;;;;1.09;100.00;63031.66;5012178;28;20746;-59
2023/03/16 05:03:38;;;;;;;0.50;0.50;;;;;;;1.11;100.00;63031.34;5029432;28;20190;-60
2023/03/16 05:06:04;;;;;;;0.40;0.40;;;;;;;1.09;100.00;63029.16;5030237;28;20190;-58
2023/03/16 05:08:29;;;;;;;1.87;0.37;;;;;;;1.08;100.00;63030.03;5030207;28;20209;-59
2023/03/16 05:10:58;;;;;;;0.40;0.40;;;;;;;1.08;100.00;63030.56;5012423;28;20680;-59
2023/03/16 05:13:24;;;;;;;0.47;0.47;;;;;;;1.15;100.00;63032.66;5030010;28;20206;-58
2023/03/16 05:15:52;;;;;;;0.57;0.30;;;;;;;1.11;100.00;63030.81;5030163;28;20276;-59
2023/03/16 05:18:18;;;;;;;0.63;0.33;;;;;;;1.04;100.00;63023.75;5012487;28;20186;-55
2023/03/16 05:20:44;;;;;;;1.63;0.70;;;;;;;1.13;100.00;63033.50;5030264;28;20202;-55
2023/03/16 05:23:10;;;;;;;0.90;0.73;;;;;;;1.08;100.00;63027.56;5033245;28;20174;-55
2023/03/16 05:25:37;;;;;;;0.40;0.40;;;;;;;1.15;100.00;63035.69;5033582;28;20217;-56
2023/03/16 05:28:03;;;;;;;0.43;0.43;;;;;;;1.10;100.00;63030.25;5033448;28;20190;-56
2023/03/16 05:30:28;;;;;;;0.77;0.77;;;;;;;3.12;100.00;63248.34;5033489;28;20202;-58
2023/03/16 05:32:56;;;;;;;1.47;0.80;;;;;;;4.10;100.00;63356.75;5033394;28;20182;-55
2023/03/16 05:35:22;;;;;;;1.00;0.60;;;;;;;3.94;100.00;63336.34;5033445;28;20221;-55
2023/03/16 05:37:48;;;;;;;0.67;0.60;;;;;;;2.61;100.00;63192.94;5033299;28;20269;-56
2023/03/16 05:40:17;;;;;;;0.60;0.60;;;;;;;1.97;100.00;63123.50;5033719;28;20210;-55
2023/03/16 05:42:48;;;;;;;0.50;0.50;;;;;;;1.67;100.00;63092.06;5033453;28;20239;-54
2023/03/16 05:45:15;;;;;;;0.60;0.60;;;;;;;1.79;100.00;63104.53;5033472;28;20687;-54
2023/03/16 05:47:42;;;;;;;0.63;0.60;;;;;;;1.56;100.00;63080.13;5033048;28;20688;-54
2023/03/16 05:50:11;;;;;;;0.67;0.67;;;;;;;1.41;100.00;63063.31;5032694;28;20289;-56
2023/03/16 05:52:38;;;;;;;0.77;0.70;;;;;;;1.38;100.00;63060.63;5032931;28;20189;-54
2023/03/16 05:55:05;;;;;;;0.70;0.70;;;;;;;1.24;100.00;63050.41;5033065;28;20207;-56
2023/03/16 05:57:37;;;;;;;0.97;0.80;;;;;;;1.23;100.00;63043.81;5032903;28;20672;-54
2023/03/16 06:00:14;;;;;;;2.70;0.70;;;;;;;1.20;100.00;63040.56;5032861;28;20268;-61
2023/03/16 06:02:48;;;;;;;1.17;0.50;;;;;;;1.18;100.00;63036.47;5032705;28;20190;-59
2023/03/16 06:05:15;;;;;;;0.60;0.40;;;;;;;1.17;100.00;63037.84;5033003;28;20209;-61
2023/03/16 06:07:41;;;;;;;0.97;0.80;;;;;;;1.25;100.00;63048.47;5032591;28;20210;-60
2023/03/16 06:10:08;;;;;;;1.23;0.70;;;;;;;1.15;100.00;63035.16;5032645;28;20605;-58
2023/03/16 06:12:33;;;;;;;1.53;0.80;;;;;;;1.11;100.00;63031.34;5032442;28;20178;-61
2023/03/16 06:15:00;;;;;;;1.23;0.97;;;;;;;1.17;100.00;63042.28;5032421;28;20654;-61
2023/03/16 06:17:26;;;;;;;1.07;0.90;;;;;;;1.16;100.00;63033.75;5032181;28;20285;-61
2023/03/16 06:19:52;;;;;;;1.50;1.23;;;;;;;1.21;100.00;63044.66;5032165;28;20351;-59
2023/03/16 06:22:17;;;;;;;3.03;1.10;;;;;;;1.18;100.00;63040.88;5032440;28;20197;-54
2023/03/16 06:24:43;;;;;;;0.97;0.70;;;;;;;1.20;100.00;63045.50;5032442;28;20599;-56
2023/03/16 06:27:09;;;;;;;0.93;0.70;;;;;;;1.21;100.00;63041.66;5032155;28;20260;-55
2023/03/16 06:29:34;;;;;;;0.90;0.90;;;;;;;1.30;100.00;63051.94;5032483;28;20673;-55
2023/03/16 06:32:00;;;;;;;1.33;0.93;;;;;;;1.35;100.00;63057.38;5031862;28;20217;-60
2023/03/16 06:34:26;;;;;;;1.23;0.97;;;;;;;1.40;100.00;63062.78;5032131;28;20300;-62
2023/03/16 06:36:51;;;;;;;1.03;0.70;;;;;;;1.43;100.00;63066.03;4998350;28;20201;-61
2023/03/16 06:39:17;;;;;;;2.33;0.80;;;;;;;1.38;100.00;63062.53;5032258;28;20699;-61
2023/03/16 06:41:42;;;;;;;1.80;0.90;;;;;;;1.49;100.00;63074.47;5032171;28;20628;-60
2023/03/16 06:44:10;;;;;;;2.50;1.17;;;;;;;1.60;100.00;63083.91;5014520;28;20217;-59
2023/03/16 06:46:36;;;;;;;2.23;0.90;;;;;;;1.64;100.00;63088.25;5032181;28;20301;-61
2023/03/16 06:49:03;;;;;;;0.80;0.80;;;;;;;1.57;100.00;63080.69;5014317;28;20221;-61
2023/03/16 06:51:29;;;;;;;0.90;0.80;;;;;;;1.64;100.00;63090.72;5032033;28;20257;-59
2023/03/16 06:53:54;;;;;;;0.77;0.63;;;;;;;1.53;100.00;63079.38;5032297;28;20213;-61
2023/03/16 06:56:20;;;;;;;1.03;0.83;;;;;;;2.38;100.00;63168.53;5032067;28;20187;-61
2023/03/16 06:58:45;;;;;;;2.27;1.27;;;;;;;4.19;100.00;63366.00;5031924;28;20198;-61
2023/03/16 07:01:11;;;;;;;1.63;1.00;;;;;;;5.12;100.00;63461.66;5031793;28;20225;-59
2023/03/16 07:03:37;;;;;;;1.33;0.93;;;;;;;5.23;100.00;63476.13;5031883;28;20186;-62
2023/03/16 07:06:03;;;;;;;1.40;0.90;;;;;;;5.21;100.00;63471.47;5031745;28;20269;-61
2023/03/16 07:08:28;;;;;;;1.20;0.77;;;;;;;3.66;100.00;63305.91;5013975;28;20654;-61
2023/03/16 07:10:53;;;;;;;0.97;0.50;;;;;;;2.69;100.00;63201.63;5031721;28;20216;-59
2023/03/16 07:13:19;;;;;;;1.60;1.10;;;;;;;2.37;100.00;63164.41;5031893;28;20217;-59
2023/03/16 07:15:45;;;;;;;1.07;0.70;;;;;;;2.07;100.00;63134.34;5031887;28;20218;-60
2023/03/16 07:18:11;;;;;;;0.50;0.50;;;;;;;2.01;100.00;63128.38;5013946;28;20198;-55
2023/03/16 07:20:37;;;;;;;0.80;0.70;;;;;;;1.88;100.00;63116.25;5031797;28;20209;-55
2023/03/16 07:23:03;;;;;;;1.53;0.90;;;;;;;1.84;100.00;63109.94;5031807;28;20197;-56
2023/03/16 07:25:30;;;;;;;1.10;1.00;;;;;;;1.75;100.00;63099.66;5031516;28;20214;-55
2023/03/16 07:27:56;;;;;;;0.90;0.90;;;;;;;1.77;100.00;63102.38;5031564;28;20198;-56
2023/03/16 07:30:24;;;;;;;0.93;0.80;;;;;;;1.74;100.00;63101.59;5031584;28;20217;-54
2023/03/16 07:32:50;;;;;;;1.20;0.93;;;;;;;1.66;100.00;63092.91;5031402;28;20275;-59
2023/03/16 07:35:16;;;;;;;1.00;0.90;;;;;;;1.75;100.00;63099.66;5031922;28;20252;-62
2023/03/16 07:37:41;;;;;;;1.30;1.00;;;;;;;1.82;100.00;63107.25;5031669;28;20664;-61
2023/03/16 07:40:08;;;;;;;0.83;0.70;;;;;;;1.68;100.00;63095.06;5031589;28;20706;-60
2023/03/16 07:42:34;;;;;;;0.80;0.80;;;;;;;1.75;100.00;63100.19;5031439;28;20196;-59
2023/03/16 07:45:00;;;;;;;1.60;1.40;;;;;;;1.77;100.00;63101.81;5012577;28;20299;-60
2023/03/16 07:47:26;;;;;;;1.17;0.90;;;;;;;1.88;100.00;63114.28;5031595;28;21152;-60
2023/03/16 07:49:51;;;;;;;2.10;1.30;;;;;;;1.85;100.00;63112.97;5031004;28;20213;-60
2023/03/16 07:52:17;;;;;;;0.87;0.87;;;;;;;1.96;100.00;63124.91;5031191;28;20186;-61
2023/03/16 07:54:43;;;;;;;2.77;1.43;;;;;;;1.90;100.00;63115.94;5031076;28;20221;-60
2023/03/16 07:57:08;;;;;;;1.30;1.00;;;;;;;1.96;100.00;63122.44;5030960;28;20255;-56
2023/03/16 07:59:34;;;;;;;2.17;1.40;;;;;;;2.19;100.00;63147.38;5030929;28;20217;-54
2023/03/16 08:01:59;;;;;;;1.10;1.00;;;;;;;2.07;100.00;63131.88;5030681;28;20194;-55
2023/03/16 08:04:25;;;;;;;2.17;1.23;;;;;;;2.09;100.00;63139.00;5030830;28;20198;-55
2023/03/16 08:06:58;;;;;;;1.10;1.00;;;;;;;2.11;100.00;63138.69;5030791;28;20703;-56
2023/03/16 08:09:25;;;;;;;1.60;0.90;;;;;;;2.12;100.00;63139.78;5031172;28;20244;-58
2023/03/16 08:11:51;;;;;;;1.43;1.30;;;;;;;2.39;100.00;63169.63;5031041;28;20278;-57
2023/03/16 08:14:16;;;;;;;2.67;2.03;;;;;;;2.42;100.00;63172.34;5030685;28;20667;-56
2023/03/16 08:16:42;;;;;;;1.27;0.97;;;;;;;2.28;100.00;63157.16;5030694;28;20187;-55
2023/03/16 08:19:07;;;;;;;1.80;1.23;;;;;;;2.25;100.00;63156.38;5030639;28;20267;-56
2023/03/16 08:21:33;;;;;;;1.03;0.80;;;;;;;2.19;100.00;63150.41;5030607;28;20201;-56
2023/03/16 08:23:58;;;;;;;2.40;1.17;;;;;;;2.11;100.00;63138.69;4996813;28;20233;-54
2023/03/16 08:26:26;;;;;;;2.73;1.23;;;;;;;2.25;100.00;63156.38;5012907;28;20664;-55
2023/03/16 08:28:52;;;;;;;1.87;1.20;;;;;;;2.24;100.00;63155.28;5030613;28;20216;-56
2023/03/16 08:31:19;;;;;;;1.30;1.00;;;;;;;2.23;100.00;63152.25;5030355;28;20252;-57
2023/03/16 08:33:46;;;;;;;0.90;0.80;;;;;;;2.36;100.00;63168.31;5030428;28;20602;-61
2023/03/16 08:36:14;;;;;;;3.30;1.30;;;;;;;2.37;100.00;63167.44;5030458;28;20248;-60
2023/03/16 08:38:40;;;;;;;0.77;0.73;;;;;;;2.34;100.00;63166.13;5030271;28;20282;-60
2023/03/16 08:41:07;;;;;;;4.47;1.50;;;;;;;2.35;100.00;63164.72;5030316;28;20191;-59
2023/03/16 08:43:32;;;;;;;1.20;1.00;;;;;;;2.30;100.00;63161.81;5030206;28;20212;-61
2023/03/16 08:45:58;;;;;;;5.40;0.87;;;;;;;2.39;100.00;63171.56;5030258;28;20583;-63
2023/03/16 08:48:25;;;;;;;2.07;1.20;;;;;;;2.36;100.00;63168.31;5030113;28;20558;-61
2023/03/16 08:50:52;;;;;;;1.57;1.23;;;;;;;2.41;100.00;63171.78;5030010;28;20220;-61
2023/03/16 08:53:18;;;;;;;1.37;1.27;;;;;;;2.45;100.00;63175.59;5029868;28;20719;-61
2023/03/16 08:55:44;;;;;;;1.13;1.03;;;;;;;2.52;100.00;63183.19;5030919;28;20220;-61
2023/03/16 08:58:11;;;;;;;1.23;0.90;;;;;;;2.55;100.00;63189.47;5033444;28;20595;-61
2023/03/16 09:00:37;;;;;;;1.87;1.10;;;;;;;2.37;100.00;63167.44;5033414;28;20205;-61
2023/03/16 09:03:03;;;;;;;2.43;1.23;;;;;;;2.45;100.00;63173.66;5033454;28;20190;-60
2023/03/16 09:05:29;;;;;;;1.43;0.90;;;;;;;2.58;100.00;63189.16;5033260;28;20296;-60
2023/03/16 09:07:55;;;;;;;3.90;1.20;;;;;;;2.53;100.00;63186.75;5033558;28;20285;-58
2023/03/16 09:10:22;;;;;;;1.70;1.20;;;;;;;2.65;100.00;63197.28;5033146;28;20220;-61
2023/03/16 09:12:51;;;;;;;2.17;1.57;;;;;;;2.73;100.00;63208.47;5033359;28;20202;-60
2023/03/16 09:15:18;;;;;;;1.40;1.30;;;;;;;2.71;100.00;63203.28;5033186;28;20202;-62
2023/03/16 09:17:45;;;;;;;0.97;0.97;;;;;;;2.76;100.00;63211.72;5033289;28;20209;-60
2023/03/16 09:20:12;;;;;;;1.60;0.90;;;;;;;2.54;100.00;63187.84;5015068;28;20232;-61
2023/03/16 09:22:38;;;;;;;1.50;0.80;;;;;;;2.42;100.00;63172.34;5033025;28;20664;-60
2023/03/16 09:25:09;;;;;;;1.90;1.60;;;;;;;2.36;100.00;63166.34;5032997;28;20210;-62
2023/03/16 09:27:35;;;;;;;2.10;1.30;;;;;;;2.68;100.00;63202.50;5033252;28;20190;-63
2023/03/16 09:30:03;;;;;;;1.83;1.20;;;;;;;2.54;100.00;63185.38;5033084;28;20214;-59
2023/03/16 09:32:29;;;;;;;3.33;1.90;;;;;;;2.61;100.00;63189.94;5033024;28;20198;-60
2023/03/16 09:34:55;;;;;;;2.60;1.80;;;;;;;2.68;100.00;63198.06;5032934;28;20217;-61
2023/03/16 09:37:21;;;;;;;3.83;1.40;;;;;;;2.76;100.00;63208.69;5032991;28;20194;-59
2023/03/16 09:39:47;;;;;;;2.70;2.00;;;;;;;2.80;100.00;63213.03;5032801;28;20218;-60
2023/03/16 09:42:21;;;;;;;1.40;1.30;;;;;;;2.90;100.00;63224.44;5032763;28;20664;-61
2023/03/16 09:44:58;;;;;;;1.90;1.40;;;;;;;2.84;100.00;63217.94;5032939;28;20217;-62
2023/03/16 09:47:29;;;;;;;3.70;1.60;;;;;;;2.93;100.00;63227.16;5032997;28;20242;-60
2023/03/16 09:49:58;;;;;;;2.27;1.60;;;;;;;2.93;100.00;63227.69;5032602;28;20222;-59
2023/03/16 09:52:30;;;;;;;2.10;1.00;;;;;;;2.76;100.00;63209.25;5032814;28;20260;-62
2023/03/16 09:55:03;;;;;;;1.00;0.93;;;;;;;2.77;100.00;63207.84;5014624;28;20229;-60
2023/03/16 09:57:36;;;;;;;1.63;1.13;;;;;;;2.71;100.00;63203.28;5032773;28;20225;-60
2023/03/16 10:00:27;;;;;;;3.33;1.57;;;;;;;2.75;100.00;63207.63;5032388;28;20210;-61
2023/03/16 10:03:08;;;;;;;1.63;1.23;;;;;;;2.74;100.00;63209.00;5032368;28;20190;-61
2023/03/16 10:05:35;;;;;;;2.03;1.70;;;;;;;2.68;100.00;63202.50;5032485;28;20228;-60
2023/03/16 10:08:11;;;;;;;3.27;2.40;;;;;;;2.55;100.00;63186.44;5031697;28;20209;-58
2023/03/16 10:11:08;;;;;;;3.10;2.43;;;;;;;2.47;100.00;63178.31;5032338;28;20237;-60
2023/03/16 10:13:43;;;;;;;2.10;1.80;;;;;;;2.66;100.00;63198.38;5032059;28;20251;-57
2023/03/16 10:16:44;;;;;;;3.63;2.27;;;;;;;2.61;100.00;63194.91;5032353;28;20660;-57
2023/03/16 10:19:22;;;;;;;4.10;2.80;;;;;;;2.76;100.00;63209.25;4998877;28;20710;-57
2023/03/16 10:21:49;;;;;;;3.07;2.20;;;;;;;2.83;100.00;63219.31;5032524;28;20197;-63
2023/03/16 10:24:56;;;;;;;2.30;1.83;;;;;;;2.88;100.00;63224.75;5032273;28;20206;-59
2023/03/16 10:27:35;;;;;;;2.47;2.00;;;;;;;3.11;100.00;63249.19;5009793;28;20206;-58
2023/03/16 10:30:02;;;;;;;3.50;2.50;;;;;;;3.10;100.00;63246.16;5032067;28;20288;-59
2023/03/16 10:32:34;;;;;;;1.53;1.43;;;;;;;2.89;100.00;63220.34;5032338;28;20194;-58
2023/03/16 10:35:14;;;;;;;2.30;1.83;;;;;;;3.23;100.00;63257.25;5031938;28;20221;-60
2023/03/16 10:37:40;;;;;;;3.40;2.10;;;;;;;3.23;100.00;63259.75;5014265;28;20660;-58
2023/03/16 10:40:09;;;;;;;2.30;1.80;;;;;;;3.27;100.00;63264.63;5031766;28;20210;-58
2023/03/16 10:42:35;;;;;;;2.90;2.40;;;;;;;3.18;100.00;63254.84;5031909;28;20190;-57
2023/03/16 10:45:02;;;;;;;2.80;1.93;;;;;;;3.05;100.00;63242.69;5031840;28;20229;-58
2023/03/16 10:47:30;;;;;;;1.97;1.70;;;;;;;3.06;100.00;63244.31;5031090;22;20309;-58
2023/03/16 10:49:56;;;;;;;4.33;2.73;;;;;;;3.16;100.00;63255.16;5012115;28;20217;-58
2023/03/16 10:52:42;;;;;;;3.93;2.10;;;;;;;3.26;100.00;63263.00;5012012;28;20197;-59
2023/03/16 10:55:16;;;;;;;2.37;1.83;;;;;;;3.11;100.00;63249.19;5011859;28;20214;-59
2023/03/16 10:57:48;;;;;;;1.63;1.53;;;;;;;3.00;100.00;63234.75;5011927;28;20199;-59
2023/03/16 11:00:20;;;;;;;2.90;1.90;;;;;;;2.99;100.00;63234.22;5012170;28;20273;-58
2023/03/16 11:02:50;;;;;;;1.57;1.47;;;;;;;3.03;100.00;63238.56;5011796;28;20231;-59
2023/03/16 11:05:16;;;;;;;2.20;1.97;;;;;;;3.02;100.00;63235.00;5011744;28;20297;-58
2023/03/16 11:07:48;;;;;;;3.13;1.83;;;;;;;3.11;100.00;63247.25;5012051;28;20199;-57
2023/03/16 11:10:35;;;;;;;2.23;1.93;;;;;;;3.21;100.00;63260.59;5011697;28;20210;-59
2023/03/16 11:13:23;;;;;;;1.70;1.57;;;;;;;3.20;100.00;63259.50;4994288;28;20286;-59
2023/03/16 11:16:10;;;;;;;2.20;1.80;;;;;;;3.16;99.76;63252.69;5011678;28;20206;-58
2023/03/16 11:18:43;;;;;;;2.07;1.83;;;;;;;3.22;100.00;63261.13;5011688;28;20220;-59
2023/03/16 11:21:53;;;;;;;2.40;1.93;;;;;;;3.23;99.39;63259.75;5011454;28;20183;-60
2023/03/16 11:24:28;;;;;;;2.47;1.90;;;;;;;3.19;99.10;63255.94;5011326;28;20214;-58
2023/03/16 11:26:58;;;;;;;2.47;1.80;;;;;;;3.22;100.00;63259.19;5011518;28;20198;-58
2023/03/16 11:29:40;;;;;;;3.53;2.60;;;;;;;3.24;100.00;63263.31;5011154;28;20269;-59
2023/03/16 11:32:15;;;;;;;2.77;1.97;;;;;;;3.31;100.00;63268.97;5009914;28;20581;-58
2023/03/16 11:34:42;;;;;;;2.63;1.73;;;;;;;3.25;99.67;63262.44;5011619;28;20246;-60
2023/03/16 11:37:26;;;;;;;2.00;1.80;;;;;;;3.32;98.98;63272.53;5011058;28;20191;-58
2023/03/16 11:40:14;;;;;;;2.20;2.00;;;;;;;3.29;99.22;63266.25;5010935;28;20218;-59